createdAt,value
2023-05-05T00:00:59.017Z,17.20
2023-05-05T00:03:27.079Z,17.20
2023-05-05T00:05:54.679Z,17.10
2023-05-05T00:08:21.936Z,17.10
2023-05-05T00:10:50.671Z,17.10
2023-05-05T00:13:18.512Z,17.10
2023-05-05T00:15:48.960Z,17.00
2023-05-05T00:18:17.218Z,17.10
2023-05-05T00:20:47.098Z,17.00
2023-05-05T00:23:15.358Z,16.90
2023-05-05T00:25:42.167Z,16.90
2023-05-05T00:28:09.136Z,16.90
2023-05-05T00:30:37.503Z,16.90
2023-05-05T00:33:04.808Z,16.90
2023-05-05T00:35:31.903Z,16.90
2023-05-05T00:37:59.600Z,16.80
2023-05-05T00:40:26.921Z,16.80
2023-05-05T00:42:53.920Z,16.80
2023-05-05T00:45:21.002Z,16.70
2023-05-05T00:47:59.072Z,16.70
2023-05-05T00:50:28.721Z,16.70
2023-05-05T00:52:58.840Z,16.70
2023-05-05T00:55:26.193Z,16.70
2023-05-05T00:57:53.428Z,16.80
2023-05-05T01:00:20.614Z,16.80
2023-05-05T01:02:47.453Z,16.70
2023-05-05T01:05:16.336Z,16.80
2023-05-05T01:08:04.471Z,16.70
2023-05-05T01:10:53.381Z,16.70
2023-05-05T01:13:55.479Z,16.70
2023-05-05T01:16:27.555Z,16.70
2023-05-05T01:18:58.394Z,16.80
2023-05-05T01:21:31.959Z,16.80
2023-05-05T01:24:30.839Z,16.70
2023-05-05T01:27:37.323Z,16.70
2023-05-05T01:30:10.348Z,16.60
2023-05-05T01:32:48.045Z,16.60
2023-05-05T01:35:25.494Z,16.60
2023-05-05T01:38:05.855Z,16.60
2023-05-05T01:40:39.179Z,16.60
2023-05-05T01:43:08.596Z,16.50
2023-05-05T01:45:38.843Z,16.70
2023-05-05T01:48:08.276Z,16.60
2023-05-05T01:50:36.809Z,16.50
2023-05-05T01:53:06.344Z,16.50
2023-05-05T01:55:59.134Z,16.50
2023-05-05T01:58:26.930Z,16.40
2023-05-05T02:00:56.564Z,16.40
2023-05-05T02:03:24.777Z,16.40
2023-05-05T02:05:53.476Z,16.40
2023-05-05T02:08:21.290Z,16.50
2023-05-05T02:10:49.201Z,16.30
2023-05-05T02:13:17.140Z,16.40
2023-05-05T02:15:45.021Z,16.50
2023-05-05T02:18:12.423Z,16.50
2023-05-05T02:20:40.992Z,16.40
2023-05-05T02:23:08.543Z,16.50
2023-05-05T02:25:51.379Z,16.40
2023-05-05T02:28:35.169Z,16.40
2023-05-05T02:31:04.702Z,16.30
2023-05-05T02:33:35.031Z,16.30
2023-05-05T02:36:31.263Z,16.20
2023-05-05T02:39:03.480Z,16.20
2023-05-05T02:41:33.229Z,16.20
2023-05-05T02:44:02.394Z,16.20
2023-05-05T02:46:29.539Z,17.00
2023-05-05T02:48:56.414Z,16.20
2023-05-05T02:51:23.463Z,16.20
2023-05-05T02:53:52.314Z,16.20
2023-05-05T02:56:31.979Z,16.20
2023-05-05T02:59:15.982Z,16.20
2023-05-05T03:02:05.160Z,16.20
2023-05-05T03:04:38.918Z,16.20
2023-05-05T03:07:30.757Z,16.30
2023-05-05T03:10:08.630Z,16.20
2023-05-05T03:13:01.327Z,16.20
2023-05-05T03:15:34.930Z,16.20
2023-05-05T03:18:03.975Z,16.20
2023-05-05T03:20:31.206Z,16.30
2023-05-05T03:22:58.423Z,16.10
2023-05-05T03:25:48.942Z,16.20
2023-05-05T03:28:16.687Z,16.20
2023-05-05T03:30:44.185Z,16.20
2023-05-05T03:33:11.960Z,16.20
2023-05-05T03:35:38.800Z,16.20
2023-05-05T03:38:05.668Z,16.30
2023-05-05T03:40:43.723Z,16.20
2023-05-05T03:43:11.912Z,16.30
2023-05-05T03:45:38.808Z,16.20
2023-05-05T03:48:06.236Z,16.20
2023-05-05T03:50:33.085Z,16.10
2023-05-05T03:52:59.838Z,16.10
2023-05-05T03:55:26.730Z,16.10
2023-05-05T03:57:53.464Z,16.10
2023-05-05T04:00:20.329Z,16.10
2023-05-05T04:02:47.375Z,16.10
2023-05-05T04:05:14.285Z,16.00
2023-05-05T04:07:41.052Z,16.00
2023-05-05T04:10:08.758Z,15.90
2023-05-05T04:12:35.948Z,15.90
2023-05-05T04:15:02.735Z,15.90
2023-05-05T04:17:29.596Z,15.90
2023-05-05T04:19:56.337Z,15.90
2023-05-05T04:22:23.062Z,15.80
2023-05-05T04:24:49.774Z,15.80
2023-05-05T04:27:17.265Z,15.80
2023-05-05T04:29:44.014Z,15.80
2023-05-05T04:32:11.024Z,15.80
2023-05-05T04:34:38.422Z,15.80
2023-05-05T04:37:05.290Z,15.80
2023-05-05T04:39:32.103Z,15.80
2023-05-05T04:41:58.981Z,15.80
2023-05-05T04:44:25.839Z,15.80
2023-05-05T04:46:52.798Z,15.90
2023-05-05T04:49:19.595Z,15.90
2023-05-05T04:51:46.776Z,15.90
2023-05-05T04:54:13.609Z,15.90
2023-05-05T04:56:40.803Z,15.90
2023-05-05T04:59:07.674Z,15.90
2023-05-05T05:01:36.927Z,15.90
2023-05-05T05:04:05.436Z,15.90
2023-05-05T05:06:32.342Z,15.90
2023-05-05T05:08:59.140Z,16.00
2023-05-05T05:11:26.513Z,16.00
2023-05-05T05:13:53.574Z,16.00
2023-05-05T05:16:21.644Z,16.00
2023-05-05T05:18:48.595Z,16.00
2023-05-05T05:21:15.309Z,16.00
2023-05-05T05:23:42.091Z,16.00
2023-05-05T05:26:09.058Z,15.90
2023-05-05T05:28:36.000Z,15.90
2023-05-05T05:31:03.032Z,16.00
2023-05-05T05:33:30.012Z,16.00
2023-05-05T05:35:56.866Z,16.00
2023-05-05T05:38:24.009Z,16.10
2023-05-05T05:40:50.864Z,16.10
2023-05-05T05:43:17.761Z,16.20
2023-05-05T05:45:44.513Z,16.20
2023-05-05T05:48:11.641Z,16.20
2023-05-05T05:50:38.467Z,16.30
2023-05-05T05:53:05.417Z,16.30
2023-05-05T05:55:32.236Z,18.10
2023-05-05T05:57:59.001Z,16.50
2023-05-05T06:00:26.248Z,16.50
2023-05-05T06:02:53.211Z,16.60
2023-05-05T06:05:20.015Z,16.70
2023-05-05T06:07:46.782Z,16.70
2023-05-05T06:10:26.601Z,16.80
2023-05-05T06:12:54.829Z,16.90
2023-05-05T06:15:21.621Z,17.00
2023-05-05T06:17:48.454Z,17.10
2023-05-05T06:20:15.369Z,17.20
2023-05-05T06:22:42.267Z,17.30
2023-05-05T06:25:09.280Z,17.40
2023-05-05T06:27:36.054Z,17.50
2023-05-05T06:30:02.897Z,17.50
2023-05-05T06:32:29.807Z,17.60
2023-05-05T06:34:56.928Z,17.70
2023-05-05T06:37:23.728Z,17.70
2023-05-05T06:39:50.810Z,17.80
2023-05-05T06:42:17.902Z,17.90
2023-05-05T06:44:44.791Z,18.00
2023-05-05T06:47:11.658Z,18.10
2023-05-05T06:49:38.447Z,18.20
2023-05-05T06:52:05.325Z,18.30
2023-05-05T06:54:32.199Z,18.40
2023-05-05T06:56:59.682Z,18.50
2023-05-05T06:59:26.713Z,18.60
2023-05-05T07:01:53.659Z,18.80
2023-05-05T07:04:21.403Z,19.00
2023-05-05T07:06:48.284Z,19.20
2023-05-05T07:09:17.008Z,19.40
2023-05-05T07:11:44.289Z,19.50
2023-05-05T07:14:11.390Z,19.70
2023-05-05T07:16:38.814Z,19.80
2023-05-05T07:19:06.335Z,19.90
2023-05-05T07:21:34.477Z,20.00
2023-05-05T07:24:03.426Z,20.10
2023-05-05T07:26:30.362Z,19.80
2023-05-05T07:28:58.847Z,20.40
2023-05-05T07:31:26.570Z,20.60
2023-05-05T07:33:53.875Z,20.70
2023-05-05T07:36:20.919Z,20.90
2023-05-05T07:38:47.846Z,21.00
2023-05-05T07:41:14.806Z,21.10
2023-05-05T07:43:44.210Z,21.10
2023-05-05T07:46:12.117Z,21.10
2023-05-05T07:48:41.634Z,21.10
2023-05-05T07:51:09.044Z,21.10
2023-05-05T07:53:36.368Z,21.20
2023-05-05T07:56:03.518Z,21.20
2023-05-05T07:58:30.431Z,21.20
2023-05-05T08:00:57.409Z,21.30
2023-05-05T08:03:25.117Z,21.20
2023-05-05T08:05:54.541Z,21.20
2023-05-05T08:08:24.980Z,21.20
2023-05-05T08:10:53.308Z,21.10
2023-05-05T08:13:20.586Z,21.10
2023-05-05T08:15:47.817Z,21.00
2023-05-05T08:18:14.820Z,20.90
2023-05-05T08:20:41.849Z,20.90
2023-05-05T08:23:08.642Z,20.90
2023-05-05T08:25:35.531Z,20.90
2023-05-05T08:28:02.534Z,20.80
2023-05-05T08:30:29.825Z,20.90
2023-05-05T08:32:56.879Z,20.90
2023-05-05T08:35:24.247Z,20.90
2023-05-05T08:37:51.902Z,21.00
2023-05-05T08:40:21.415Z,21.10
2023-05-05T08:42:48.520Z,21.10
2023-05-05T08:45:16.062Z,21.20
2023-05-05T08:47:43.637Z,21.30
2023-05-05T08:50:11.557Z,21.30
2023-05-05T08:52:40.936Z,21.30
2023-05-05T08:55:29.256Z,21.30
2023-05-05T08:57:57.878Z,21.30
2023-05-05T09:00:27.253Z,21.20
2023-05-05T09:02:57.309Z,21.20
2023-05-05T09:05:25.017Z,21.20
2023-05-05T09:07:52.295Z,21.20
2023-05-05T09:10:20.638Z,21.20
2023-05-05T09:12:49.573Z,21.20
2023-05-05T09:15:16.479Z,21.20
2023-05-05T09:17:44.285Z,21.20
2023-05-05T09:20:13.327Z,21.10
2023-05-05T09:22:42.865Z,21.10
2023-05-05T09:25:12.186Z,21.10
2023-05-05T09:27:41.747Z,21.10
2023-05-05T09:30:15.672Z,21.10
2023-05-05T09:32:55.495Z,21.20
2023-05-05T09:35:23.509Z,21.10
2023-05-05T09:37:50.501Z,21.10
2023-05-05T09:40:19.466Z,21.00
2023-05-05T09:42:46.813Z,21.00
2023-05-05T09:45:20.006Z,20.90
2023-05-05T09:47:48.172Z,20.90
2023-05-05T09:50:18.702Z,20.90
2023-05-05T09:52:55.173Z,20.90
2023-05-05T09:55:23.105Z,20.80
2023-05-05T09:57:50.149Z,20.80
2023-05-05T10:00:17.946Z,20.70
2023-05-05T10:02:45.827Z,20.60
2023-05-05T10:05:17.545Z,20.60
2023-05-05T10:07:47.936Z,20.50
2023-05-05T10:10:18.434Z,20.40
2023-05-05T10:12:50.116Z,20.40
2023-05-05T10:15:17.927Z,20.40
2023-05-05T10:18:05.328Z,20.30
2023-05-05T10:20:33.481Z,20.20
2023-05-05T10:23:05.698Z,20.20
2023-05-05T10:25:50.839Z,20.20
2023-05-05T10:28:28.779Z,20.20
2023-05-05T10:30:58.487Z,20.20
2023-05-05T10:33:35.303Z,20.20
2023-05-05T10:36:06.220Z,20.20
2023-05-05T10:38:34.335Z,20.10
2023-05-05T10:41:04.804Z,20.10
2023-05-05T10:43:35.154Z,20.10
2023-05-05T10:46:03.360Z,20.10
2023-05-05T10:48:39.636Z,20.10
2023-05-05T10:51:45.486Z,20.10
2023-05-05T10:54:28.913Z,20.10
2023-05-05T10:56:56.901Z,20.10
2023-05-05T10:59:40.377Z,20.10
2023-05-05T11:02:20.227Z,20.20
2023-05-05T11:05:15.495Z,20.20
2023-05-05T11:07:44.525Z,20.20
2023-05-05T11:10:14.054Z,20.30
2023-05-05T11:13:00.124Z,20.30
2023-05-05T11:15:30.307Z,20.40
2023-05-05T11:18:04.187Z,20.40
2023-05-05T11:20:45.488Z,20.40
2023-05-05T11:23:13.980Z,20.50
2023-05-05T11:25:44.708Z,20.50
2023-05-05T11:28:21.407Z,20.60
2023-05-05T11:30:58.494Z,20.60
2023-05-05T11:33:39.426Z,20.60
2023-05-05T11:36:09.086Z,20.70
2023-05-05T11:39:00.631Z,20.70
2023-05-05T11:41:33.445Z,20.80
2023-05-05T11:44:13.555Z,20.80
2023-05-05T11:47:06.205Z,20.80
2023-05-05T11:49:33.703Z,20.90
2023-05-05T11:52:14.527Z,20.90
2023-05-05T11:54:48.124Z,21.00
2023-05-05T11:57:21.725Z,21.10
2023-05-05T11:59:54.310Z,21.00
2023-05-05T12:02:22.059Z,21.10
2023-05-05T12:04:50.093Z,21.10
2023-05-05T12:07:21.817Z,21.00
2023-05-05T12:09:49.900Z,21.10
2023-05-05T12:12:17.524Z,21.10
2023-05-05T12:14:52.761Z,21.10
2023-05-05T12:17:23.538Z,21.10
2023-05-05T12:19:55.352Z,21.10
2023-05-05T12:22:26.687Z,21.10
2023-05-05T12:24:57.761Z,21.10
2023-05-05T12:27:26.620Z,21.20
2023-05-05T12:29:57.667Z,21.20
2023-05-05T12:32:26.420Z,21.20
2023-05-05T12:34:54.746Z,21.20
2023-05-05T12:37:22.866Z,21.30
2023-05-05T12:39:55.105Z,21.30
2023-05-05T12:42:22.657Z,21.30
2023-05-05T12:44:49.627Z,21.30
2023-05-05T12:47:33.804Z,21.30
2023-05-05T12:50:03.022Z,21.30
2023-05-05T12:52:44.013Z,21.40
2023-05-05T12:55:11.576Z,21.40
2023-05-05T12:57:38.996Z,21.50
2023-05-05T13:00:17.855Z,21.40
2023-05-05T13:02:44.833Z,21.50
2023-05-05T13:05:12.027Z,21.50
2023-05-05T13:07:51.204Z,21.40
2023-05-05T13:10:18.083Z,21.50
2023-05-05T13:12:44.968Z,21.40
2023-05-05T13:15:12.340Z,21.40
2023-05-05T13:17:39.399Z,21.40
2023-05-05T13:20:08.609Z,20.50
2023-05-05T13:22:36.198Z,21.40
2023-05-05T13:25:03.131Z,21.40
2023-05-05T13:27:30.062Z,21.40
2023-05-05T13:30:00.146Z,21.50
2023-05-05T13:32:26.953Z,21.50
2023-05-05T13:34:53.787Z,21.50
2023-05-05T13:37:21.085Z,21.60
2023-05-05T13:39:47.988Z,21.70
2023-05-05T13:42:14.869Z,21.70
2023-05-05T13:44:41.789Z,21.70
2023-05-05T13:47:08.716Z,21.80
2023-05-05T13:49:36.050Z,21.90
2023-05-05T13:52:03.102Z,21.90
2023-05-05T13:54:29.963Z,22.00
2023-05-05T13:56:57.931Z,22.00
2023-05-05T13:59:25.886Z,23.10
2023-05-05T14:01:52.929Z,21.80
2023-05-05T14:04:19.867Z,21.80
2023-05-05T14:06:46.677Z,21.70
2023-05-05T14:09:13.780Z,21.70
2023-05-05T14:11:41.154Z,21.60
2023-05-05T14:14:08.148Z,21.60
2023-05-05T14:16:35.249Z,21.60
2023-05-05T14:19:02.042Z,21.60
2023-05-05T14:21:28.885Z,21.60
2023-05-05T14:23:55.844Z,21.50
2023-05-05T14:26:22.676Z,21.50
2023-05-05T14:28:50.130Z,21.50
2023-05-05T14:31:17.739Z,21.50
2023-05-05T14:33:44.545Z,21.50
2023-05-05T14:36:11.512Z,21.50
2023-05-05T14:38:38.496Z,21.50
2023-05-05T14:41:05.603Z,21.50
2023-05-05T14:43:32.385Z,21.50
2023-05-05T14:46:00.462Z,21.50
2023-05-05T14:48:28.175Z,21.50
2023-05-05T14:50:55.113Z,21.50
2023-05-05T14:53:21.859Z,21.40
2023-05-05T14:55:48.803Z,21.40
2023-05-05T14:58:17.189Z,21.30
2023-05-05T15:00:44.149Z,21.30
2023-05-05T15:03:11.281Z,21.30
2023-05-05T15:05:38.129Z,21.30
2023-05-05T15:08:05.233Z,21.30
2023-05-05T15:10:32.106Z,21.20
2023-05-05T15:12:58.998Z,21.20
2023-05-05T15:15:25.807Z,21.20
2023-05-05T15:17:52.912Z,21.20
2023-05-05T15:20:19.753Z,21.20
2023-05-05T15:22:49.031Z,21.20
2023-05-05T15:25:16.448Z,21.30
2023-05-05T15:27:43.557Z,21.20
2023-05-05T15:30:11.886Z,21.30
2023-05-05T15:32:38.874Z,21.20
2023-05-05T15:35:06.273Z,21.20
2023-05-05T15:37:33.317Z,21.20
2023-05-05T15:40:00.240Z,21.20
2023-05-05T15:42:27.048Z,21.20
2023-05-05T15:44:53.835Z,21.20
2023-05-05T15:47:20.704Z,21.20
2023-05-05T15:49:47.636Z,21.20
2023-05-05T15:52:14.515Z,21.20
2023-05-05T15:54:41.540Z,21.20
2023-05-05T15:57:08.357Z,21.20
2023-05-05T15:59:35.463Z,21.20
2023-05-05T16:02:02.475Z,21.20
2023-05-05T16:04:29.257Z,21.20
2023-05-05T16:06:56.337Z,21.20
2023-05-05T16:09:23.138Z,21.10
2023-05-05T16:11:50.052Z,21.10
2023-05-05T16:14:17.095Z,21.10
2023-05-05T16:16:44.020Z,21.10
2023-05-05T16:19:10.912Z,21.20
2023-05-05T16:21:37.705Z,21.20
2023-05-05T16:24:04.811Z,21.20
2023-05-05T16:26:31.615Z,21.20
2023-05-05T16:28:58.730Z,21.20
2023-05-05T16:31:25.896Z,21.20
2023-05-05T16:33:52.765Z,21.10
2023-05-05T16:36:20.851Z,21.10
2023-05-05T16:38:48.018Z,21.10
2023-05-05T16:41:14.966Z,21.00
2023-05-05T16:43:41.746Z,21.00
2023-05-05T16:46:08.566Z,20.90
2023-05-05T16:48:35.329Z,20.80
2023-05-05T16:51:02.108Z,20.80
2023-05-05T16:53:28.973Z,20.70
2023-05-05T16:55:55.956Z,20.70
2023-05-05T16:58:22.978Z,20.70
2023-05-05T17:00:50.401Z,20.70
2023-05-05T17:03:18.479Z,20.70
2023-05-05T17:05:49.646Z,20.70
2023-05-05T17:08:16.986Z,20.70
2023-05-05T17:10:44.669Z,20.80
2023-05-05T17:13:13.303Z,20.60
2023-05-05T17:15:40.984Z,20.50
2023-05-05T17:18:08.325Z,20.40
2023-05-05T17:20:36.334Z,20.20
2023-05-05T17:23:03.298Z,20.00
2023-05-05T17:25:30.201Z,19.80
2023-05-05T17:27:57.627Z,19.60
2023-05-05T17:30:24.836Z,19.30
2023-05-05T17:32:51.872Z,19.10
2023-05-05T17:35:18.758Z,19.00
2023-05-05T17:37:45.714Z,18.80
2023-05-05T17:40:12.671Z,18.70
2023-05-05T17:42:39.544Z,18.60
2023-05-05T17:45:07.887Z,18.40
2023-05-05T17:47:35.161Z,18.30
2023-05-05T17:50:02.427Z,18.20
2023-05-05T17:52:29.248Z,18.20
2023-05-05T17:54:56.154Z,18.20
2023-05-05T17:57:23.126Z,18.10
2023-05-05T17:59:51.967Z,17.90
2023-05-05T18:02:19.296Z,17.90
2023-05-05T18:04:46.568Z,18.00
2023-05-05T18:07:14.654Z,18.00
2023-05-05T18:09:42.364Z,18.00
2023-05-05T18:12:09.220Z,18.00
2023-05-05T18:14:36.321Z,18.10
2023-05-05T18:17:03.391Z,18.10
2023-05-05T18:19:30.806Z,18.20
2023-05-05T18:21:57.682Z,18.30
2023-05-05T18:24:24.711Z,18.20
2023-05-05T18:26:52.476Z,18.30
2023-05-05T18:29:21.758Z,18.30
2023-05-05T18:31:51.760Z,18.30
2023-05-05T18:34:20.566Z,18.40
2023-05-05T18:36:48.106Z,18.40
2023-05-05T18:39:15.286Z,18.40
2023-05-05T18:41:42.115Z,18.50
2023-05-05T18:44:09.039Z,18.50
2023-05-05T18:46:35.953Z,18.50
2023-05-05T18:49:03.507Z,18.50
2023-05-05T18:51:30.748Z,18.60
2023-05-05T18:53:57.713Z,18.70
2023-05-05T18:56:24.514Z,18.70
2023-05-05T18:58:51.284Z,18.60
2023-05-05T19:01:18.357Z,18.60
2023-05-05T19:03:48.214Z,18.70
2023-05-05T19:06:15.980Z,18.70
2023-05-05T19:08:46.680Z,18.70
2023-05-05T19:11:15.123Z,18.70
2023-05-05T19:13:42.471Z,18.60
2023-05-05T19:16:11.187Z,18.60
2023-05-05T19:18:38.525Z,18.70
2023-05-05T19:21:05.756Z,18.70
2023-05-05T19:23:43.281Z,18.70
2023-05-05T19:26:11.587Z,18.70
2023-05-05T19:28:38.437Z,18.70
2023-05-05T19:31:05.457Z,18.60
2023-05-05T19:33:32.235Z,18.60
2023-05-05T19:36:01.810Z,18.60
2023-05-05T19:38:29.430Z,18.60
2023-05-05T19:40:56.454Z,18.60
2023-05-05T19:43:29.988Z,18.60
2023-05-05T19:45:56.890Z,18.70
2023-05-05T19:48:23.725Z,18.60
2023-05-05T19:50:51.059Z,18.60
2023-05-05T19:53:17.845Z,18.60
2023-05-05T19:55:44.551Z,18.60
2023-05-05T19:58:11.380Z,18.60
2023-05-05T20:00:38.134Z,18.60
2023-05-05T20:03:04.923Z,18.60
2023-05-05T20:05:31.872Z,18.60
2023-05-05T20:07:58.795Z,18.50
2023-05-05T20:10:26.751Z,18.60
2023-05-05T20:12:53.989Z,18.50
2023-05-05T20:15:21.704Z,18.50
2023-05-05T20:17:48.820Z,18.50
2023-05-05T20:20:20.923Z,18.50
2023-05-05T20:22:49.129Z,18.50
2023-05-05T20:25:18.954Z,18.50
2023-05-05T20:27:45.897Z,18.40
2023-05-05T20:30:13.214Z,18.40
2023-05-05T20:32:40.738Z,18.40
2023-05-05T20:35:08.184Z,18.40
2023-05-05T20:37:34.945Z,18.40
2023-05-05T20:40:01.800Z,18.40
2023-05-05T20:42:29.721Z,18.40
2023-05-05T20:44:56.893Z,18.30
2023-05-05T20:47:24.411Z,18.30
2023-05-05T20:49:52.537Z,18.20
2023-05-05T20:52:19.703Z,18.30
2023-05-05T20:54:46.466Z,18.20
2023-05-05T20:57:13.221Z,18.20
2023-05-05T20:59:40.161Z,18.20
2023-05-05T21:02:07.305Z,18.20
2023-05-05T21:04:34.245Z,18.20
2023-05-05T21:07:01.279Z,18.20
2023-05-05T21:09:28.254Z,18.20
2023-05-05T21:11:55.083Z,18.20
2023-05-05T21:14:22.167Z,18.30
2023-05-05T21:16:49.052Z,18.30
2023-05-05T21:19:16.467Z,18.20
2023-05-05T21:21:43.281Z,18.20
2023-05-05T21:24:10.528Z,18.20
2023-05-05T21:26:37.439Z,18.20
2023-05-05T21:29:04.361Z,18.10
2023-05-05T21:31:31.276Z,18.20
2023-05-05T21:33:58.084Z,18.10
2023-05-05T21:36:24.858Z,18.10
2023-05-05T21:38:51.675Z,18.10
2023-05-05T21:41:18.442Z,18.10
2023-05-05T21:43:45.243Z,18.20
2023-05-05T21:46:12.155Z,18.20
2023-05-05T21:48:39.972Z,18.20
2023-05-05T21:51:07.656Z,18.20
2023-05-05T21:53:34.908Z,18.10
2023-05-05T21:56:01.729Z,18.10
2023-05-05T21:58:29.142Z,18.10
2023-05-05T22:00:56.135Z,18.10
2023-05-05T22:03:23.128Z,18.10
2023-05-05T22:05:50.090Z,18.10
2023-05-05T22:08:17.371Z,18.10
2023-05-05T22:10:44.340Z,18.10
2023-05-05T22:13:11.244Z,18.10
2023-05-05T22:15:46.079Z,18.20
2023-05-05T22:18:14.279Z,18.10
2023-05-05T22:20:41.236Z,18.10
2023-05-05T22:23:08.152Z,18.10
2023-05-05T22:25:35.416Z,18.10
2023-05-05T22:28:02.311Z,18.20
2023-05-05T22:30:29.264Z,18.10
2023-05-05T22:32:56.248Z,18.10
2023-05-05T22:35:23.263Z,18.10
2023-05-05T22:37:50.076Z,18.10
2023-05-05T22:40:16.942Z,18.10
2023-05-05T22:42:43.871Z,18.10
2023-05-05T22:45:11.326Z,18.10
2023-05-05T22:47:38.362Z,18.00
2023-05-05T22:50:05.925Z,18.00
2023-05-05T22:52:32.669Z,18.00
2023-05-05T22:54:59.385Z,18.00
2023-05-05T22:57:26.234Z,18.00
2023-05-05T22:59:53.043Z,18.00
2023-05-05T23:02:20.006Z,18.10
2023-05-05T23:04:46.953Z,18.10
2023-05-05T23:07:13.846Z,18.10
2023-05-05T23:09:41.146Z,18.20
2023-05-05T23:12:08.091Z,18.20
2023-05-05T23:14:35.902Z,18.30
2023-05-05T23:17:02.807Z,18.30
2023-05-05T23:19:32.195Z,18.20
2023-05-05T23:22:00.221Z,18.20
2023-05-05T23:24:28.476Z,18.20
2023-05-05T23:26:58.338Z,18.20
2023-05-05T23:29:25.446Z,18.30
2023-05-05T23:31:52.419Z,18.30
2023-05-05T23:34:19.275Z,18.30
2023-05-05T23:36:46.162Z,18.30
2023-05-05T23:39:12.906Z,18.30
2023-05-05T23:41:39.744Z,18.30
2023-05-05T23:44:06.523Z,18.30
2023-05-05T23:46:33.509Z,18.30
2023-05-05T23:49:00.312Z,18.20
2023-05-05T23:51:27.388Z,18.20
2023-05-05T23:53:57.343Z,18.20
2023-05-05T23:56:24.734Z,18.20
2023-05-05T23:58:52.887Z,18.20
